sensor_id;sensor_type;location;lat;lon;timestamp;temperature;humidity
10788;DHT22;5446;50.826;4.380;2022-10-26T00:00:49;14.00;99.90
10788;DHT22;5446;50.826;4.380;2022-10-26T00:03:15;14.00;99.90
10788;DHT22;5446;50.826;4.380;2022-10-26T00:05:42;14.00;99.90
10788;DHT22;5446;50.826;4.380;2022-10-26T00:08:08;14.00;99.90
10788;DHT22;5446;50.826;4.380;2022-10-26T00:10:35;14.00;99.90
10788;DHT22;5446;50.826;4.380;2022-10-26T00:13:01;14.00;99.90
10788;DHT22;5446;50.826;4.380;2022-10-26T00:15:27;13.90;99.90
10788;DHT22;5446;50.826;4.380;2022-10-26T00:17:53;13.90;99.90
10788;DHT22;5446;50.826;4.380;2022-10-26T00:20:19;13.90;99.90
10788;DHT22;5446;50.826;4.380;2022-10-26T00:22:45;13.90;99.90
10788;DHT22;5446;50.826;4.380;2022-10-26T00:25:10;13.90;99.90
10788;DHT22;5446;50.826;4.380;2022-10-26T00:27:36;13.90;99.90
10788;DHT22;5446;50.826;4.380;2022-10-26T00:30:04;13.90;99.90
10788;DHT22;5446;50.826;4.380;2022-10-26T00:32:30;13.90;99.90
10788;DHT22;5446;50.826;4.380;2022-10-26T00:34:56;13.90;99.90
10788;DHT22;5446;50.826;4.380;2022-10-26T00:37:22;13.90;99.90
10788;DHT22;5446;50.826;4.380;2022-10-26T00:39:47;13.90;99.90
10788;DHT22;5446;50.826;4.380;2022-10-26T00:42:17;14.00;99.90
10788;DHT22;5446;50.826;4.380;2022-10-26T00:50:37;14.00;99.90
10788;DHT22;5446;50.826;4.380;2022-10-26T00:53:05;14.00;99.90
10788;DHT22;5446;50.826;4.380;2022-10-26T00:55:34;14.00;99.90
10788;DHT22;5446;50.826;4.380;2022-10-26T00:58:03;14.10;99.90
10788;DHT22;5446;50.826;4.380;2022-10-26T01:00:30;14.10;99.90
10788;DHT22;5446;50.826;4.380;2022-10-26T01:02:59;14.10;99.90
10788;DHT22;5446;50.826;4.380;2022-10-26T01:05:26;14.10;99.90
10788;DHT22;5446;50.826;4.380;2022-10-26T01:07:53;14.00;99.90
10788;DHT22;5446;50.826;4.380;2022-10-26T01:10:20;14.00;99.90
10788;DHT22;5446;50.826;4.380;2022-10-26T01:12:46;14.00;99.90
10788;DHT22;5446;50.826;4.380;2022-10-26T01:15:12;13.90;99.90
10788;DHT22;5446;50.826;4.380;2022-10-26T01:17:52;13.90;99.90
10788;DHT22;5446;50.826;4.380;2022-10-26T01:23:25;13.80;99.90
10788;DHT22;5446;50.826;4.380;2022-10-26T01:31:43;13.80;99.90
10788;DHT22;5446;50.826;4.380;2022-10-26T01:34:35;13.80;99.90
10788;DHT22;5446;50.826;4.380;2022-10-26T01:37:17;13.90;99.90
10788;DHT22;5446;50.826;4.380;2022-10-26T01:39:47;13.90;99.90
10788;DHT22;5446;50.826;4.380;2022-10-26T01:42:15;13.90;99.90
10788;DHT22;5446;50.826;4.380;2022-10-26T01:44:45;14.00;99.90
10788;DHT22;5446;50.826;4.380;2022-10-26T01:47:14;14.00;99.90
10788;DHT22;5446;50.826;4.380;2022-10-26T01:49:51;14.00;99.90
10788;DHT22;5446;50.826;4.380;2022-10-26T01:52:18;14.00;99.90
10788;DHT22;5446;50.826;4.380;2022-10-26T01:54:44;14.00;99.90
10788;DHT22;5446;50.826;4.380;2022-10-26T01:57:12;14.00;99.90
10788;DHT22;5446;50.826;4.380;2022-10-26T02:00:02;14.10;99.90
10788;DHT22;5446;50.826;4.380;2022-10-26T02:02:41;14.10;99.90
10788;DHT22;5446;50.826;4.380;2022-10-26T02:05:30;14.20;99.90
10788;DHT22;5446;50.826;4.380;2022-10-26T02:13:58;14.30;99.90
10788;DHT22;5446;50.826;4.380;2022-10-26T02:22:11;14.30;99.90
10788;DHT22;5446;50.826;4.380;2022-10-26T02:24:39;14.40;99.90
10788;DHT22;5446;50.826;4.380;2022-10-26T02:27:07;14.50;99.90
10788;DHT22;5446;50.826;4.380;2022-10-26T02:29:35;14.50;99.90
10788;DHT22;5446;50.826;4.380;2022-10-26T02:32:02;14.50;99.90
10788;DHT22;5446;50.826;4.380;2022-10-26T02:34:29;14.50;99.90
10788;DHT22;5446;50.826;4.380;2022-10-26T02:36:58;14.60;99.90
10788;DHT22;5446;50.826;4.380;2022-10-26T02:39:27;14.60;99.90
10788;DHT22;5446;50.826;4.380;2022-10-26T02:41:54;14.70;99.90
10788;DHT22;5446;50.826;4.380;2022-10-26T02:44:26;14.70;99.90
10788;DHT22;5446;50.826;4.380;2022-10-26T02:46:54;14.80;99.90
10788;DHT22;5446;50.826;4.380;2022-10-26T02:49:20;14.70;99.90
10788;DHT22;5446;50.826;4.380;2022-10-26T02:52:13;14.70;99.90
10788;DHT22;5446;50.826;4.380;2022-10-26T02:54:53;14.80;99.90
10788;DHT22;5446;50.826;4.380;2022-10-26T02:57:27;14.80;99.90
10788;DHT22;5446;50.826;4.380;2022-10-26T02:59:54;14.80;99.90
10788;DHT22;5446;50.826;4.380;2022-10-26T03:02:21;14.80;99.90
10788;DHT22;5446;50.826;4.380;2022-10-26T03:04:49;14.80;99.90
10788;DHT22;5446;50.826;4.380;2022-10-26T03:07:25;14.80;99.90
10788;DHT22;5446;50.826;4.380;2022-10-26T03:09:51;14.90;99.90
10788;DHT22;5446;50.826;4.380;2022-10-26T03:12:16;14.90;99.90
10788;DHT22;5446;50.826;4.380;2022-10-26T03:14:42;14.90;99.90
10788;DHT22;5446;50.826;4.380;2022-10-26T03:17:08;14.90;99.90
10788;DHT22;5446;50.826;4.380;2022-10-26T03:19:33;14.90;99.90
10788;DHT22;5446;50.826;4.380;2022-10-26T03:21:59;14.90;99.90
10788;DHT22;5446;50.826;4.380;2022-10-26T03:24:25;14.90;99.90
10788;DHT22;5446;50.826;4.380;2022-10-26T03:26:50;14.90;99.90
10788;DHT22;5446;50.826;4.380;2022-10-26T03:29:16;15.00;99.90
10788;DHT22;5446;50.826;4.380;2022-10-26T03:31:41;15.00;99.90
10788;DHT22;5446;50.826;4.380;2022-10-26T03:34:07;15.00;99.90
10788;DHT22;5446;50.826;4.380;2022-10-26T03:36:33;15.00;99.90
10788;DHT22;5446;50.826;4.380;2022-10-26T03:38:58;15.00;99.90
10788;DHT22;5446;50.826;4.380;2022-10-26T03:41:24;15.10;99.90
10788;DHT22;5446;50.826;4.380;2022-10-26T03:43:50;15.10;99.90
10788;DHT22;5446;50.826;4.380;2022-10-26T03:46:16;15.10;99.90
10788;DHT22;5446;50.826;4.380;2022-10-26T03:48:41;15.10;99.90
10788;DHT22;5446;50.826;4.380;2022-10-26T03:51:07;15.20;99.90
10788;DHT22;5446;50.826;4.380;2022-10-26T03:53:33;15.30;99.90
10788;DHT22;5446;50.826;4.380;2022-10-26T03:55:59;15.30;99.90
10788;DHT22;5446;50.826;4.380;2022-10-26T03:58:24;15.40;99.90
10788;DHT22;5446;50.826;4.380;2022-10-26T04:00:50;15.40;99.90
10788;DHT22;5446;50.826;4.380;2022-10-26T04:03:16;15.30;99.90
10788;DHT22;5446;50.826;4.380;2022-10-26T04:05:41;15.30;99.90
10788;DHT22;5446;50.826;4.380;2022-10-26T04:08:07;15.30;99.90
10788;DHT22;5446;50.826;4.380;2022-10-26T04:10:33;15.30;99.90
10788;DHT22;5446;50.826;4.380;2022-10-26T04:12:59;15.30;99.90
10788;DHT22;5446;50.826;4.380;2022-10-26T04:15:26;15.30;99.90
10788;DHT22;5446;50.826;4.380;2022-10-26T04:17:59;15.20;99.90
10788;DHT22;5446;50.826;4.380;2022-10-26T04:20:26;15.20;99.90
10788;DHT22;5446;50.826;4.380;2022-10-26T04:23:00;15.20;99.90
10788;DHT22;5446;50.826;4.380;2022-10-26T04:25:26;15.20;99.90
10788;DHT22;5446;50.826;4.380;2022-10-26T04:27:52;15.20;99.90
10788;DHT22;5446;50.826;4.380;2022-10-26T04:30:18;15.20;99.90
10788;DHT22;5446;50.826;4.380;2022-10-26T04:32:44;15.20;99.90
10788;DHT22;5446;50.826;4.380;2022-10-26T04:35:09;15.20;99.90
10788;DHT22;5446;50.826;4.380;2022-10-26T04:37:35;15.20;99.90
10788;DHT22;5446;50.826;4.380;2022-10-26T04:40:00;15.10;99.90
10788;DHT22;5446;50.826;4.380;2022-10-26T04:42:26;15.10;99.90
10788;DHT22;5446;50.826;4.380;2022-10-26T04:44:52;15.10;99.90
10788;DHT22;5446;50.826;4.380;2022-10-26T04:47:17;15.10;99.90
10788;DHT22;5446;50.826;4.380;2022-10-26T04:49:43;15.20;99.90
10788;DHT22;5446;50.826;4.380;2022-10-26T04:52:09;15.10;99.90
10788;DHT22;5446;50.826;4.380;2022-10-26T04:54:34;15.10;99.90
10788;DHT22;5446;50.826;4.380;2022-10-26T04:57:00;15.10;99.90
10788;DHT22;5446;50.826;4.380;2022-10-26T04:59:25;15.10;99.90
10788;DHT22;5446;50.826;4.380;2022-10-26T05:01:51;15.10;99.90
10788;DHT22;5446;50.826;4.380;2022-10-26T05:07:39;15.10;99.90
10788;DHT22;5446;50.826;4.380;2022-10-26T05:10:05;15.10;99.90
10788;DHT22;5446;50.826;4.380;2022-10-26T05:12:31;15.10;99.90
10788;DHT22;5446;50.826;4.380;2022-10-26T05:14:57;15.10;99.90
10788;DHT22;5446;50.826;4.380;2022-10-26T05:17:26;15.10;99.90
10788;DHT22;5446;50.826;4.380;2022-10-26T05:19:52;15.10;99.90
10788;DHT22;5446;50.826;4.380;2022-10-26T05:22:22;15.10;99.90
10788;DHT22;5446;50.826;4.380;2022-10-26T05:24:48;15.10;99.90
10788;DHT22;5446;50.826;4.380;2022-10-26T05:27:13;15.10;99.90
10788;DHT22;5446;50.826;4.380;2022-10-26T05:29:39;15.10;99.90
10788;DHT22;5446;50.826;4.380;2022-10-26T05:32:05;15.10;99.90
10788;DHT22;5446;50.826;4.380;2022-10-26T05:34:30;15.00;99.90
10788;DHT22;5446;50.826;4.380;2022-10-26T05:36:56;15.00;99.90
10788;DHT22;5446;50.826;4.380;2022-10-26T05:39:21;14.90;99.90
10788;DHT22;5446;50.826;4.380;2022-10-26T05:41:47;14.90;99.90
10788;DHT22;5446;50.826;4.380;2022-10-26T05:44:13;14.80;99.90
10788;DHT22;5446;50.826;4.380;2022-10-26T05:46:39;14.80;99.90
10788;DHT22;5446;50.826;4.380;2022-10-26T05:49:04;14.80;99.90
10788;DHT22;5446;50.826;4.380;2022-10-26T05:51:32;14.80;99.90
10788;DHT22;5446;50.826;4.380;2022-10-26T05:53:59;14.80;99.90
10788;DHT22;5446;50.826;4.380;2022-10-26T05:56:36;14.80;99.90
10788;DHT22;5446;50.826;4.380;2022-10-26T05:59:03;14.80;99.90
10788;DHT22;5446;50.826;4.380;2022-10-26T06:04:38;14.80;99.90
10788;DHT22;5446;50.826;4.380;2022-10-26T06:07:16;14.80;99.90
10788;DHT22;5446;50.826;4.380;2022-10-26T06:09:42;14.80;99.90
10788;DHT22;5446;50.826;4.380;2022-10-26T06:12:09;14.80;99.90
10788;DHT22;5446;50.826;4.380;2022-10-26T06:14:36;14.80;99.90
10788;DHT22;5446;50.826;4.380;2022-10-26T06:30:14;14.70;99.90
10788;DHT22;5446;50.826;4.380;2022-10-26T06:32:43;14.80;99.90
10788;DHT22;5446;50.826;4.380;2022-10-26T06:35:36;14.80;99.90
10788;DHT22;5446;50.826;4.380;2022-10-26T06:38:16;14.90;99.90
10788;DHT22;5446;50.826;4.380;2022-10-26T06:40:45;14.90;99.90
10788;DHT22;5446;50.826;4.380;2022-10-26T06:43:25;15.00;99.90
10788;DHT22;5446;50.826;4.380;2022-10-26T06:49:03;15.00;99.90
10788;DHT22;5446;50.826;4.380;2022-10-26T06:51:37;15.00;99.90
10788;DHT22;5446;50.826;4.380;2022-10-26T06:57:01;15.00;99.90
10788;DHT22;5446;50.826;4.380;2022-10-26T06:59:31;15.00;99.90
10788;DHT22;5446;50.826;4.380;2022-10-26T07:01:59;15.00;99.90
10788;DHT22;5446;50.826;4.380;2022-10-26T07:04:25;15.10;99.90
10788;DHT22;5446;50.826;4.380;2022-10-26T07:06:50;15.10;99.90
10788;DHT22;5446;50.826;4.380;2022-10-26T07:09:16;15.10;99.90
10788;DHT22;5446;50.826;4.380;2022-10-26T07:11:42;15.10;99.90
10788;DHT22;5446;50.826;4.380;2022-10-26T07:14:07;15.10;99.90
10788;DHT22;5446;50.826;4.380;2022-10-26T07:16:33;15.20;99.90
10788;DHT22;5446;50.826;4.380;2022-10-26T07:18:59;15.20;99.90
10788;DHT22;5446;50.826;4.380;2022-10-26T07:21:25;15.20;99.90
10788;DHT22;5446;50.826;4.380;2022-10-26T07:23:51;15.20;99.90
10788;DHT22;5446;50.826;4.380;2022-10-26T07:26:17;15.20;99.90
10788;DHT22;5446;50.826;4.380;2022-10-26T07:28:42;15.30;99.90
10788;DHT22;5446;50.826;4.380;2022-10-26T07:31:08;15.30;99.90
10788;DHT22;5446;50.826;4.380;2022-10-26T07:33:34;15.30;99.90
10788;DHT22;5446;50.826;4.380;2022-10-26T07:36:00;15.30;99.90
10788;DHT22;5446;50.826;4.380;2022-10-26T07:38:25;15.40;99.90
10788;DHT22;5446;50.826;4.380;2022-10-26T07:40:51;15.40;99.90
10788;DHT22;5446;50.826;4.380;2022-10-26T07:43:18;15.40;99.90
10788;DHT22;5446;50.826;4.380;2022-10-26T07:45:48;15.40;99.90
10788;DHT22;5446;50.826;4.380;2022-10-26T07:48:13;15.40;99.90
10788;DHT22;5446;50.826;4.380;2022-10-26T07:50:39;15.50;99.90
10788;DHT22;5446;50.826;4.380;2022-10-26T07:53:05;15.50;99.90
10788;DHT22;5446;50.826;4.380;2022-10-26T07:55:30;15.50;99.90
10788;DHT22;5446;50.826;4.380;2022-10-26T07:57:56;15.60;99.90
10788;DHT22;5446;50.826;4.380;2022-10-26T08:00:21;15.70;99.90
10788;DHT22;5446;50.826;4.380;2022-10-26T08:02:47;15.70;99.90
10788;DHT22;5446;50.826;4.380;2022-10-26T08:05:13;15.70;99.90
10788;DHT22;5446;50.826;4.380;2022-10-26T08:07:43;15.70;99.90
10788;DHT22;5446;50.826;4.380;2022-10-26T08:10:10;15.80;99.90
10788;DHT22;5446;50.826;4.380;2022-10-26T08:12:36;15.80;99.90
10788;DHT22;5446;50.826;4.380;2022-10-26T08:15:02;15.90;99.90
10788;DHT22;5446;50.826;4.380;2022-10-26T08:17:28;16.00;99.90
10788;DHT22;5446;50.826;4.380;2022-10-26T08:19:54;16.10;99.90
10788;DHT22;5446;50.826;4.380;2022-10-26T08:22:19;16.20;99.90
10788;DHT22;5446;50.826;4.380;2022-10-26T08:24:45;16.20;99.90
10788;DHT22;5446;50.826;4.380;2022-10-26T08:27:12;16.20;99.90
10788;DHT22;5446;50.826;4.380;2022-10-26T08:29:39;16.20;99.90
10788;DHT22;5446;50.826;4.380;2022-10-26T08:32:05;16.20;99.90
10788;DHT22;5446;50.826;4.380;2022-10-26T08:34:31;16.30;99.90
10788;DHT22;5446;50.826;4.380;2022-10-26T08:36:56;16.30;99.90
10788;DHT22;5446;50.826;4.380;2022-10-26T08:39:22;16.30;99.90
10788;DHT22;5446;50.826;4.380;2022-10-26T08:41:49;16.30;99.90
10788;DHT22;5446;50.826;4.380;2022-10-26T08:46:54;16.40;99.90
10788;DHT22;5446;50.826;4.380;2022-10-26T08:49:59;16.50;99.90
10788;DHT22;5446;50.826;4.380;2022-10-26T08:52:22;16.60;99.90
10788;DHT22;5446;50.826;4.380;2022-10-26T08:54:55;16.60;99.90
10788;DHT22;5446;50.826;4.380;2022-10-26T08:57:34;16.70;99.90
10788;DHT22;5446;50.826;4.380;2022-10-26T09:02:29;16.80;99.90
10788;DHT22;5446;50.826;4.380;2022-10-26T09:04:57;16.80;99.90
10788;DHT22;5446;50.826;4.380;2022-10-26T09:08:00;16.80;99.90
10788;DHT22;5446;50.826;4.380;2022-10-26T09:10:52;16.90;99.90
10788;DHT22;5446;50.826;4.380;2022-10-26T09:13:44;16.90;99.90
10788;DHT22;5446;50.826;4.380;2022-10-26T09:16:16;16.90;99.90
10788;DHT22;5446;50.826;4.380;2022-10-26T09:21:53;16.90;99.90
10788;DHT22;5446;50.826;4.380;2022-10-26T09:24:33;17.00;99.90
10788;DHT22;5446;50.826;4.380;2022-10-26T09:29:42;17.00;99.90
10788;DHT22;5446;50.826;4.380;2022-10-26T09:32:33;17.10;99.90
10788;DHT22;5446;50.826;4.380;2022-10-26T09:35:25;17.10;99.90
10788;DHT22;5446;50.826;4.380;2022-10-26T09:43:59;17.20;99.90
10788;DHT22;5446;50.826;4.380;2022-10-26T09:46:36;17.30;99.90
10788;DHT22;5446;50.826;4.380;2022-10-26T09:49:09;17.40;99.90
10788;DHT22;5446;50.826;4.380;2022-10-26T09:51:38;17.40;99.90
10788;DHT22;5446;50.826;4.380;2022-10-26T09:54:14;17.40;99.90
10788;DHT22;5446;50.826;4.380;2022-10-26T09:56:53;17.40;99.90
10788;DHT22;5446;50.826;4.380;2022-10-26T09:59:21;17.50;99.90
10788;DHT22;5446;50.826;4.380;2022-10-26T10:01:48;17.50;99.90
10788;DHT22;5446;50.826;4.380;2022-10-26T10:07:11;17.60;99.90
10788;DHT22;5446;50.826;4.380;2022-10-26T10:09:39;17.60;99.90
10788;DHT22;5446;50.826;4.380;2022-10-26T10:12:16;17.70;99.90
10788;DHT22;5446;50.826;4.380;2022-10-26T10:14:55;17.70;99.90
10788;DHT22;5446;50.826;4.380;2022-10-26T10:17:22;17.80;99.90
10788;DHT22;5446;50.826;4.380;2022-10-26T10:19:48;17.90;99.90
10788;DHT22;5446;50.826;4.380;2022-10-26T10:24:42;18.00;99.90
10788;DHT22;5446;50.826;4.380;2022-10-26T10:32:34;18.10;99.90
10788;DHT22;5446;50.826;4.380;2022-10-26T10:34:59;18.10;99.90
10788;DHT22;5446;50.826;4.380;2022-10-26T10:37:37;18.20;99.90
10788;DHT22;5446;50.826;4.380;2022-10-26T10:40:13;18.30;99.90
10788;DHT22;5446;50.826;4.380;2022-10-26T10:42:41;18.20;99.90
10788;DHT22;5446;50.826;4.380;2022-10-26T10:45:22;18.20;99.90
10788;DHT22;5446;50.826;4.380;2022-10-26T10:48:15;18.30;99.90
10788;DHT22;5446;50.826;4.380;2022-10-26T10:50:59;18.30;99.90
10788;DHT22;5446;50.826;4.380;2022-10-26T10:53:54;18.30;99.90
10788;DHT22;5446;50.826;4.380;2022-10-26T10:59:31;18.30;99.90
10788;DHT22;5446;50.826;4.380;2022-10-26T11:02:28;18.30;99.90
10788;DHT22;5446;50.826;4.380;2022-10-26T11:05:17;18.30;99.90
10788;DHT22;5446;50.826;4.380;2022-10-26T11:10:20;18.30;99.90
10788;DHT22;5446;50.826;4.380;2022-10-26T11:12:58;18.30;99.90
10788;DHT22;5446;50.826;4.380;2022-10-26T11:15:27;18.20;99.90
10788;DHT22;5446;50.826;4.380;2022-10-26T11:20:29;18.20;99.90
10788;DHT22;5446;50.826;4.380;2022-10-26T11:23:44;18.20;99.90
10788;DHT22;5446;50.826;4.380;2022-10-26T11:25:58;18.20;99.90
10788;DHT22;5446;50.826;4.380;2022-10-26T11:28:45;18.20;99.90
10788;DHT22;5446;50.826;4.380;2022-10-26T11:31:26;18.20;99.90
10788;DHT22;5446;50.826;4.380;2022-10-26T11:34:23;18.20;99.90
10788;DHT22;5446;50.826;4.380;2022-10-26T11:37:02;18.20;99.90
10788;DHT22;5446;50.826;4.380;2022-10-26T11:39:52;18.20;99.90
10788;DHT22;5446;50.826;4.380;2022-10-26T11:42:23;18.20;99.90
10788;DHT22;5446;50.826;4.380;2022-10-26T11:45:00;18.20;99.90
10788;DHT22;5446;50.826;4.380;2022-10-26T11:47:39;18.30;99.90
10788;DHT22;5446;50.826;4.380;2022-10-26T11:50:26;18.30;99.90
10788;DHT22;5446;50.826;4.380;2022-10-26T11:55:28;18.50;99.90
10788;DHT22;5446;50.826;4.380;2022-10-26T11:57:54;18.40;99.90
10788;DHT22;5446;50.826;4.380;2022-10-26T12:00:21;18.50;99.90
10788;DHT22;5446;50.826;4.380;2022-10-26T12:03:07;18.60;99.90
10788;DHT22;5446;50.826;4.380;2022-10-26T12:05:42;18.60;99.90
10788;DHT22;5446;50.826;4.380;2022-10-26T12:08:29;18.60;99.90
10788;DHT22;5446;50.826;4.380;2022-10-26T12:11:22;18.60;99.90
10788;DHT22;5446;50.826;4.380;2022-10-26T12:13:58;18.70;99.90
10788;DHT22;5446;50.826;4.380;2022-10-26T12:19:20;18.80;99.90
10788;DHT22;5446;50.826;4.380;2022-10-26T12:21:48;18.80;99.90
10788;DHT22;5446;50.826;4.380;2022-10-26T12:24:29;18.80;99.90
10788;DHT22;5446;50.826;4.380;2022-10-26T12:27:02;18.80;99.90
10788;DHT22;5446;50.826;4.380;2022-10-26T12:29:38;18.90;99.90
10788;DHT22;5446;50.826;4.380;2022-10-26T12:34:59;19.00;99.90
10788;DHT22;5446;50.826;4.380;2022-10-26T12:37:33;19.10;99.90
10788;DHT22;5446;50.826;4.380;2022-10-26T12:45:41;19.10;99.90
10788;DHT22;5446;50.826;4.380;2022-10-26T12:48:24;19.20;99.90
10788;DHT22;5446;50.826;4.380;2022-10-26T12:56:54;19.30;99.90
10788;DHT22;5446;50.826;4.380;2022-10-26T13:02:26;19.30;99.90
10788;DHT22;5446;50.826;4.380;2022-10-26T13:05:55;19.30;99.90
10788;DHT22;5446;50.826;4.380;2022-10-26T13:08:13;19.30;99.90
10788;DHT22;5446;50.826;4.380;2022-10-26T13:11:06;19.30;99.90
10788;DHT22;5446;50.826;4.380;2022-10-26T13:13:32;19.30;99.90
10788;DHT22;5446;50.826;4.380;2022-10-26T13:15:59;19.40;99.90
10788;DHT22;5446;50.826;4.380;2022-10-26T13:18:26;19.40;99.90
10788;DHT22;5446;50.826;4.380;2022-10-26T13:23:31;19.40;99.90
10788;DHT22;5446;50.826;4.380;2022-10-26T13:31:03;19.50;99.90
10788;DHT22;5446;50.826;4.380;2022-10-26T13:33:41;19.50;99.90
10788;DHT22;5446;50.826;4.380;2022-10-26T13:41:40;19.60;99.90
10788;DHT22;5446;50.826;4.380;2022-10-26T13:44:18;19.60;99.90
10788;DHT22;5446;50.826;4.380;2022-10-26T13:46:53;19.70;99.90
10788;DHT22;5446;50.826;4.380;2022-10-26T13:49:29;19.70;99.90
10788;DHT22;5446;50.826;4.380;2022-10-26T13:51:55;19.70;99.90
10788;DHT22;5446;50.826;4.380;2022-10-26T13:54:36;19.80;99.90
10788;DHT22;5446;50.826;4.380;2022-10-26T13:57:54;19.80;99.90
10788;DHT22;5446;50.826;4.380;2022-10-26T13:59:59;19.80;99.90
10788;DHT22;5446;50.826;4.380;2022-10-26T14:02:27;19.90;99.90
10788;DHT22;5446;50.826;4.380;2022-10-26T14:05:01;19.80;99.90
10788;DHT22;5446;50.826;4.380;2022-10-26T14:07:44;19.80;99.90
10788;DHT22;5446;50.826;4.380;2022-10-26T14:12:54;19.80;99.90
10788;DHT22;5446;50.826;4.380;2022-10-26T14:15:25;19.90;99.90
10788;DHT22;5446;50.826;4.380;2022-10-26T14:17:53;19.90;99.90
10788;DHT22;5446;50.826;4.380;2022-10-26T14:20:23;19.90;99.90
10788;DHT22;5446;50.826;4.380;2022-10-26T14:22:49;19.90;99.90
10788;DHT22;5446;50.826;4.380;2022-10-26T14:25:28;19.90;99.90
10788;DHT22;5446;50.826;4.380;2022-10-26T14:27:56;19.90;99.90
10788;DHT22;5446;50.826;4.380;2022-10-26T14:30:31;19.90;99.90
10788;DHT22;5446;50.826;4.380;2022-10-26T14:32:57;19.90;99.90
10788;DHT22;5446;50.826;4.380;2022-10-26T14:35:30;19.90;99.90
10788;DHT22;5446;50.826;4.380;2022-10-26T14:37:59;19.90;99.90
10788;DHT22;5446;50.826;4.380;2022-10-26T14:40:29;20.00;99.90
10788;DHT22;5446;50.826;4.380;2022-10-26T14:42:58;20.00;99.90
10788;DHT22;5446;50.826;4.380;2022-10-26T14:45:31;20.00;99.90
10788;DHT22;5446;50.826;4.380;2022-10-26T14:47:59;20.10;99.90
10788;DHT22;5446;50.826;4.380;2022-10-26T14:50:25;20.20;99.90
10788;DHT22;5446;50.826;4.380;2022-10-26T14:53:12;20.20;99.90
10788;DHT22;5446;50.826;4.380;2022-10-26T14:55:48;20.20;99.90
10788;DHT22;5446;50.826;4.380;2022-10-26T14:58:21;20.10;99.90
10788;DHT22;5446;50.826;4.380;2022-10-26T15:03:41;20.00;99.90
10788;DHT22;5446;50.826;4.380;2022-10-26T15:08:57;19.90;99.90
10788;DHT22;5446;50.826;4.380;2022-10-26T15:11:27;19.90;99.90
10788;DHT22;5446;50.826;4.380;2022-10-26T15:13:54;19.90;99.90
10788;DHT22;5446;50.826;4.380;2022-10-26T15:16:26;19.90;99.90
10788;DHT22;5446;50.826;4.380;2022-10-26T15:18:58;19.80;99.90
10788;DHT22;5446;50.826;4.380;2022-10-26T15:21:26;19.80;99.90
10788;DHT22;5446;50.826;4.380;2022-10-26T15:23:55;19.80;99.90
10788;DHT22;5446;50.826;4.380;2022-10-26T15:26:21;19.70;99.90
10788;DHT22;5446;50.826;4.380;2022-10-26T15:28:47;19.70;99.90
10788;DHT22;5446;50.826;4.380;2022-10-26T15:38:47;19.70;99.90
10788;DHT22;5446;50.826;4.380;2022-10-26T15:43:51;19.60;99.90
10788;DHT22;5446;50.826;4.380;2022-10-26T15:46:18;19.50;99.90
10788;DHT22;5446;50.826;4.380;2022-10-26T15:48:54;19.50;99.90
10788;DHT22;5446;50.826;4.380;2022-10-26T15:51:21;19.40;99.90
10788;DHT22;5446;50.826;4.380;2022-10-26T15:53:47;19.30;99.90
10788;DHT22;5446;50.826;4.380;2022-10-26T15:56:17;19.30;99.90
10788;DHT22;5446;50.826;4.380;2022-10-26T15:58:44;19.30;99.90
10788;DHT22;5446;50.826;4.380;2022-10-26T16:01:16;19.20;99.90
10788;DHT22;5446;50.826;4.380;2022-10-26T16:03:42;19.20;99.90
10788;DHT22;5446;50.826;4.380;2022-10-26T16:06:15;19.20;99.90
10788;DHT22;5446;50.826;4.380;2022-10-26T16:08:43;19.20;99.90
10788;DHT22;5446;50.826;4.380;2022-10-26T16:11:11;19.20;99.90
10788;DHT22;5446;50.826;4.380;2022-10-26T16:13:36;19.10;99.90
10788;DHT22;5446;50.826;4.380;2022-10-26T16:16:02;19.10;99.90
10788;DHT22;5446;50.826;4.380;2022-10-26T16:18:28;19.00;99.90
10788;DHT22;5446;50.826;4.380;2022-10-26T16:20:53;18.80;99.90
10788;DHT22;5446;50.826;4.380;2022-10-26T16:23:19;18.80;99.90
10788;DHT22;5446;50.826;4.380;2022-10-26T16:25:45;18.70;99.90
10788;DHT22;5446;50.826;4.380;2022-10-26T16:28:14;18.60;99.90
10788;DHT22;5446;50.826;4.380;2022-10-26T16:30:40;18.50;99.90
10788;DHT22;5446;50.826;4.380;2022-10-26T16:33:05;18.50;99.90
10788;DHT22;5446;50.826;4.380;2022-10-26T16:35:31;18.40;99.90
10788;DHT22;5446;50.826;4.380;2022-10-26T16:37:57;18.40;99.90
10788;DHT22;5446;50.826;4.380;2022-10-26T16:40:22;18.40;99.90
10788;DHT22;5446;50.826;4.380;2022-10-26T16:42:48;18.40;99.90
10788;DHT22;5446;50.826;4.380;2022-10-26T16:45:14;18.40;99.90
10788;DHT22;5446;50.826;4.380;2022-10-26T16:47:40;18.40;99.90
10788;DHT22;5446;50.826;4.380;2022-10-26T16:50:07;18.40;99.90
10788;DHT22;5446;50.826;4.380;2022-10-26T16:52:34;18.40;99.90
10788;DHT22;5446;50.826;4.380;2022-10-26T16:55:00;18.30;99.90
10788;DHT22;5446;50.826;4.380;2022-10-26T16:57:26;18.30;99.90
10788;DHT22;5446;50.826;4.380;2022-10-26T16:59:51;18.30;99.90
10788;DHT22;5446;50.826;4.380;2022-10-26T17:02:17;18.20;99.90
10788;DHT22;5446;50.826;4.380;2022-10-26T17:04:43;18.10;99.90
10788;DHT22;5446;50.826;4.380;2022-10-26T17:07:12;18.10;99.90
10788;DHT22;5446;50.826;4.380;2022-10-26T17:09:37;18.10;99.90
10788;DHT22;5446;50.826;4.380;2022-10-26T17:12:03;18.00;99.90
10788;DHT22;5446;50.826;4.380;2022-10-26T17:14:29;17.90;99.90
10788;DHT22;5446;50.826;4.380;2022-10-26T17:16:56;17.90;99.90
10788;DHT22;5446;50.826;4.380;2022-10-26T17:19:22;17.80;99.90
10788;DHT22;5446;50.826;4.380;2022-10-26T17:21:47;17.80;99.90
10788;DHT22;5446;50.826;4.380;2022-10-26T17:24:13;17.70;99.90
10788;DHT22;5446;50.826;4.380;2022-10-26T17:26:39;17.70;99.90
10788;DHT22;5446;50.826;4.380;2022-10-26T17:29:05;17.70;99.90
10788;DHT22;5446;50.826;4.380;2022-10-26T17:31:31;17.70;99.90
10788;DHT22;5446;50.826;4.380;2022-10-26T17:33:57;17.70;99.90
10788;DHT22;5446;50.826;4.380;2022-10-26T17:36:23;17.70;99.90
10788;DHT22;5446;50.826;4.380;2022-10-26T17:38:53;17.70;99.90
10788;DHT22;5446;50.826;4.380;2022-10-26T17:41:20;17.70;99.90
10788;DHT22;5446;50.826;4.380;2022-10-26T17:43:48;17.80;99.90
10788;DHT22;5446;50.826;4.380;2022-10-26T17:46:18;17.80;99.90
10788;DHT22;5446;50.826;4.380;2022-10-26T17:48:44;17.80;99.90
10788;DHT22;5446;50.826;4.380;2022-10-26T17:51:14;17.80;99.90
10788;DHT22;5446;50.826;4.380;2022-10-26T17:53:40;17.80;99.90
10788;DHT22;5446;50.826;4.380;2022-10-26T17:56:12;17.80;99.90
10788;DHT22;5446;50.826;4.380;2022-10-26T17:58:39;17.80;99.90
10788;DHT22;5446;50.826;4.380;2022-10-26T18:01:07;17.80;99.90
10788;DHT22;5446;50.826;4.380;2022-10-26T18:03:33;17.80;99.90
10788;DHT22;5446;50.826;4.380;2022-10-26T18:05:59;17.70;99.90
10788;DHT22;5446;50.826;4.380;2022-10-26T18:08:28;17.70;99.90
10788;DHT22;5446;50.826;4.380;2022-10-26T18:10:54;17.60;99.90
10788;DHT22;5446;50.826;4.380;2022-10-26T18:13:20;17.50;99.90
10788;DHT22;5446;50.826;4.380;2022-10-26T18:15:46;17.50;99.90
10788;DHT22;5446;50.826;4.380;2022-10-26T18:18:12;17.40;99.90
10788;DHT22;5446;50.826;4.380;2022-10-26T18:20:38;17.30;99.90
10788;DHT22;5446;50.826;4.380;2022-10-26T18:23:04;17.30;99.90
10788;DHT22;5446;50.826;4.380;2022-10-26T18:25:31;17.20;99.90